createdAt,value
2024-05-09T00:02:59.811Z,63.3
2024-05-09T00:05:59.966Z,63.3
2024-05-09T00:08:59.755Z,63.8
2024-05-09T00:12:00.001Z,64.2
2024-05-09T00:14:59.792Z,64.3
2024-05-09T00:17:59.976Z,64.3
2024-05-09T00:20:59.826Z,64.7
2024-05-09T00:23:59.758Z,65.5
2024-05-09T00:26:59.785Z,66.1
2024-05-09T00:29:59.815Z,66.1
2024-05-09T00:32:59.796Z,66.4
2024-05-09T00:35:59.777Z,66.6
2024-05-09T00:38:59.727Z,66.6
2024-05-09T00:41:59.787Z,66.6
2024-05-09T00:44:59.736Z,66.9
2024-05-09T00:48:01.765Z,66.5
2024-05-09T00:51:00.565Z,66.9
2024-05-09T00:54:00.412Z,66.9
2024-05-09T00:57:01.698Z,67.1
2024-05-09T01:00:00.184Z,66.9
2024-05-09T01:02:59.884Z,66.5
2024-05-09T01:05:59.871Z,66.5
2024-05-09T01:08:59.758Z,66.8
2024-05-09T01:11:59.792Z,66.7
2024-05-09T01:14:59.743Z,66.5
2024-05-09T01:18:00.339Z,66.5
2024-05-09T01:20:59.888Z,66.4
2024-05-09T01:23:59.739Z,66.6
2024-05-09T01:26:59.746Z,66.4
2024-05-09T01:29:59.722Z,66.4
2024-05-09T01:32:59.995Z,66.3
2024-05-09T01:35:59.712Z,66.4
2024-05-09T01:38:59.739Z,66.4
2024-05-09T01:41:59.735Z,66.4
2024-05-09T01:44:59.789Z,66.5
2024-05-09T01:48:00.145Z,66.9
2024-05-09T01:50:59.782Z,67.0
2024-05-09T01:54:01.058Z,67.0
2024-05-09T01:56:59.756Z,67.2
2024-05-09T01:59:59.719Z,67.0
2024-05-09T02:03:00.858Z,67.3
2024-05-09T02:06:00.708Z,67.3
2024-05-09T02:09:00.549Z,67.9
2024-05-09T02:12:00.883Z,68.1
2024-05-09T02:15:00.588Z,68.6
2024-05-09T02:18:00.972Z,68.6
2024-05-09T02:21:00.864Z,68.3
2024-05-09T02:24:00.508Z,68.5
2024-05-09T02:27:00.594Z,68.5
2024-05-09T02:30:00.738Z,68.5
2024-05-09T02:33:00.881Z,68.6
2024-05-09T02:36:00.525Z,68.7
2024-05-09T02:39:00.626Z,68.9
2024-05-09T02:42:00.551Z,68.9
2024-05-09T02:45:00.542Z,68.9
2024-05-09T02:48:01.463Z,68.8
2024-05-09T02:51:00.584Z,68.9
2024-05-09T02:54:00.613Z,68.9
2024-05-09T02:57:00.553Z,68.8
2024-05-09T03:00:00.536Z,69.2
2024-05-09T03:03:00.754Z,69.0
2024-05-09T03:06:01.085Z,69.0
2024-05-09T03:09:00.523Z,69.2
2024-05-09T03:12:00.683Z,69.5
2024-05-09T03:15:00.536Z,69.6
2024-05-09T03:18:00.888Z,69.6
2024-05-09T03:21:00.669Z,69.8
2024-05-09T03:24:00.542Z,70.2
2024-05-09T03:27:00.497Z,70.2
2024-05-09T03:30:00.661Z,70.2
2024-05-09T03:33:00.846Z,70.0
2024-05-09T03:36:01.468Z,69.9
2024-05-09T03:39:00.522Z,69.6
2024-05-09T03:42:00.532Z,69.6
2024-05-09T03:45:00.562Z,69.4
2024-05-09T03:48:00.703Z,69.4
2024-05-09T03:51:00.593Z,69.5
2024-05-09T03:54:00.566Z,69.5
2024-05-09T03:57:00.727Z,69.5
2024-05-09T04:00:00.502Z,69.3
2024-05-09T04:03:00.783Z,69.7
2024-05-09T04:06:00.569Z,69.7
2024-05-09T04:09:00.569Z,69.6
2024-05-09T04:12:00.810Z,69.7
2024-05-09T04:15:00.507Z,69.6
2024-05-09T04:18:01.625Z,69.6
2024-05-09T04:21:01.909Z,69.6
2024-05-09T04:24:00.492Z,69.2
2024-05-09T04:27:00.473Z,69.5
2024-05-09T04:30:00.693Z,69.5
2024-05-09T04:33:01.425Z,69.5
2024-05-09T04:36:00.512Z,69.4
2024-05-09T04:39:00.454Z,69.2
2024-05-09T04:42:00.483Z,69.2
2024-05-09T04:45:00.513Z,69.0
2024-05-09T04:48:01.277Z,68.7
2024-05-09T04:51:00.786Z,68.8
2024-05-09T04:54:00.574Z,68.8
2024-05-09T04:57:00.529Z,68.5
2024-05-09T05:00:00.452Z,68.8
2024-05-09T05:03:00.611Z,68.7
2024-05-09T05:06:00.501Z,68.7
2024-05-09T05:09:00.577Z,69.2
2024-05-09T05:12:00.635Z,69.6
2024-05-09T05:15:00.509Z,70.0
2024-05-09T05:18:00.771Z,70.0
2024-05-09T05:21:00.543Z,69.7
2024-05-09T05:24:00.446Z,69.4
2024-05-09T05:27:00.471Z,69.2
2024-05-09T05:30:00.525Z,69.2
2024-05-09T05:33:00.937Z,69.3
2024-05-09T05:36:00.429Z,69.3
2024-05-09T05:39:00.455Z,69.0
2024-05-09T05:42:00.449Z,69.0
2024-05-09T05:45:00.565Z,68.9
2024-05-09T05:48:02.236Z,69.2
2024-05-09T05:51:03.867Z,69.0
2024-05-09T05:54:00.499Z,69.0
2024-05-09T05:57:00.504Z,68.7
2024-05-09T06:00:00.554Z,68.6
2024-05-09T06:03:00.651Z,68.9
2024-05-09T06:06:01.329Z,68.9
2024-05-09T06:09:00.496Z,68.7
2024-05-09T06:12:00.961Z,68.7
2024-05-09T06:15:00.464Z,68.6
2024-05-09T06:18:00.817Z,68.6
2024-05-09T06:21:02.114Z,68.4
2024-05-09T06:24:02.517Z,68.1
2024-05-09T06:27:00.455Z,68.0
2024-05-09T06:30:00.510Z,68.0
2024-05-09T06:33:00.666Z,67.8
2024-05-09T06:36:00.422Z,67.4
2024-05-09T06:39:00.513Z,67.4
2024-05-09T06:42:00.494Z,67.4
2024-05-09T06:45:00.491Z,66.8
2024-05-09T06:48:00.786Z,66.5
2024-05-09T06:51:00.571Z,66.1
2024-05-09T06:54:00.492Z,66.1
2024-05-09T06:57:00.470Z,66.1
2024-05-09T07:00:00.616Z,65.6
2024-05-09T07:03:03.639Z,65.0
2024-05-09T07:06:00.453Z,65.0
2024-05-09T07:09:00.440Z,64.2
2024-05-09T07:12:00.592Z,63.7
2024-05-09T07:15:00.447Z,63.1
2024-05-09T07:18:00.636Z,63.1
2024-05-09T07:21:00.547Z,62.8
2024-05-09T07:24:00.456Z,62.3
2024-05-09T07:27:00.422Z,61.6
2024-05-09T07:30:00.424Z,61.6
2024-05-09T07:33:00.862Z,61.5
2024-05-09T07:36:00.532Z,60.1
2024-05-09T07:39:00.417Z,60.1
2024-05-09T07:42:00.419Z,60.1
2024-05-09T07:45:20.549Z,58.5
2024-05-09T07:53:00.966Z,58.4
2024-05-09T07:54:01.410Z,58.4
2024-05-09T07:57:00.622Z,57.6
2024-05-09T08:00:00.486Z,57.7
2024-05-09T08:03:00.471Z,55.1
2024-05-09T08:06:00.396Z,55.1
2024-05-09T08:09:05.308Z,55.3
2024-05-09T08:12:00.436Z,54.2
2024-05-09T08:15:00.416Z,53.9
2024-05-09T08:18:01.075Z,53.9
2024-05-09T08:21:00.442Z,54.0
2024-05-09T08:24:00.447Z,52.6
2024-05-09T08:27:00.701Z,52.3
2024-05-09T08:30:00.468Z,52.3
2024-05-09T08:33:00.521Z,52.6
2024-05-09T08:36:00.452Z,51.7
2024-05-09T08:39:00.415Z,49.5
2024-05-09T08:42:00.728Z,49.5
2024-05-09T08:45:00.652Z,50.2
2024-05-09T08:48:01.518Z,48.6
2024-05-09T08:51:00.519Z,48.7
2024-05-09T08:54:00.426Z,48.7
2024-05-09T08:57:01.258Z,47.8
2024-05-09T09:00:04.888Z,47.8
2024-05-09T09:03:01.663Z,46.2
2024-05-09T09:06:01.264Z,46.2
2024-05-09T09:09:02.162Z,46.1
2024-05-09T09:12:00.455Z,45.6
2024-05-09T09:15:00.475Z,44.7
2024-05-09T09:18:01.109Z,44.7
2024-05-09T09:21:00.445Z,45.6
2024-05-09T09:24:00.396Z,45.5
2024-05-09T09:27:00.442Z,44.2
2024-05-09T09:30:00.385Z,44.2
2024-05-09T09:33:00.572Z,43.1
2024-05-09T09:36:01.674Z,43.9
2024-05-09T09:39:01.422Z,44.1
2024-05-09T09:42:01.481Z,44.1
2024-05-09T09:45:04.741Z,42.5
2024-05-09T09:48:00.890Z,42.9
2024-05-09T09:51:00.563Z,43.0
2024-05-09T09:54:01.990Z,43.0
2024-05-09T09:57:02.012Z,43.6
2024-05-09T10:00:00.658Z,42.6
2024-05-09T10:03:00.992Z,41.0
2024-05-09T10:06:00.920Z,41.0
2024-05-09T10:09:00.608Z,40.1
2024-05-09T10:12:09.532Z,40.7
2024-05-09T10:15:06.171Z,41.1
2024-05-09T10:18:04.124Z,41.1
2024-05-09T10:21:00.399Z,41.3
2024-05-09T10:24:02.254Z,40.4
2024-05-09T10:27:02.704Z,40.3
2024-05-09T10:30:01.501Z,40.3
2024-05-09T10:33:00.400Z,40.6
2024-05-09T10:36:01.946Z,40.8
2024-05-09T10:39:00.618Z,40.0
2024-05-09T10:42:00.498Z,40.0
2024-05-09T10:45:00.730Z,39.7
2024-05-09T10:48:00.602Z,39.2
2024-05-09T10:51:00.438Z,39.6
2024-05-09T10:54:00.407Z,39.6
2024-05-09T10:57:00.379Z,40.0
2024-05-09T11:00:00.440Z,39.4
2024-05-09T11:03:00.510Z,39.7
2024-05-09T11:06:00.763Z,39.7
2024-05-09T11:09:00.507Z,39.4
2024-05-09T11:12:01.230Z,38.6
2024-05-09T11:15:00.399Z,37.5
2024-05-09T11:18:00.521Z,37.5
2024-05-09T11:21:00.413Z,37.7
2024-05-09T11:24:00.416Z,38.4
2024-05-09T11:27:02.550Z,38.0
2024-05-09T11:30:00.429Z,38.0
2024-05-09T11:33:00.549Z,37.7
2024-05-09T11:36:00.442Z,38.2
2024-05-09T11:39:00.386Z,37.8
2024-05-09T11:42:00.425Z,37.8
2024-05-09T11:45:00.396Z,36.8
2024-05-09T11:48:00.552Z,37.7
2024-05-09T11:51:00.345Z,37.4
2024-05-09T11:54:00.512Z,37.4
2024-05-09T11:57:00.426Z,36.4
2024-05-09T12:00:00.307Z,37.6
2024-05-09T12:03:00.388Z,37.4
2024-05-09T12:06:00.749Z,37.4
2024-05-09T12:09:00.390Z,37.2
2024-05-09T12:12:00.360Z,35.9
2024-05-09T12:15:00.397Z,36.3
2024-05-09T12:18:03.481Z,36.3
2024-05-09T12:21:00.814Z,36.1
2024-05-09T12:24:00.329Z,36.0
2024-05-09T12:27:00.352Z,35.6
2024-05-09T12:30:00.414Z,35.6
2024-05-09T12:33:00.462Z,35.2
2024-05-09T12:36:00.387Z,34.7
2024-05-09T12:39:00.969Z,35.0
2024-05-09T12:42:00.406Z,35.0
2024-05-09T12:45:00.326Z,34.9
2024-05-09T12:48:00.728Z,33.5
2024-05-09T12:51:00.314Z,33.3
2024-05-09T12:54:00.400Z,33.3
2024-05-09T12:57:00.359Z,34.7
2024-05-09T13:00:00.390Z,32.9
2024-05-09T13:03:00.715Z,33.3
2024-05-09T13:06:00.446Z,33.3
2024-05-09T13:09:00.372Z,32.8
2024-05-09T13:12:00.484Z,32.9
2024-05-09T13:15:00.283Z,31.9
2024-05-09T13:18:02.998Z,31.9
2024-05-09T13:21:00.311Z,32.0
2024-05-09T13:24:00.539Z,31.9
2024-05-09T13:27:00.446Z,31.7
2024-05-09T13:30:00.302Z,31.7
2024-05-09T13:33:00.414Z,31.7
2024-05-09T13:36:00.312Z,30.7
2024-05-09T13:39:00.451Z,30.9
2024-05-09T13:42:00.331Z,30.9
2024-05-09T13:45:00.341Z,30.3
2024-05-09T13:48:00.564Z,30.4
2024-05-09T13:51:00.381Z,30.4
2024-05-09T13:54:00.402Z,30.4
2024-05-09T13:57:00.309Z,31.0
2024-05-09T14:00:00.304Z,30.4
2024-05-09T14:03:00.620Z,29.9
2024-05-09T14:06:00.430Z,29.9
2024-05-09T14:09:00.427Z,29.6
2024-05-09T14:12:00.285Z,30.1
2024-05-09T14:15:00.372Z,30.0
2024-05-09T14:18:00.354Z,30.0
2024-05-09T14:21:00.933Z,30.4
2024-05-09T14:24:00.279Z,29.8
2024-05-09T14:27:00.366Z,30.2
2024-05-09T14:30:00.371Z,30.2
2024-05-09T14:33:00.380Z,29.4
2024-05-09T14:36:00.298Z,30.2
2024-05-09T14:39:00.349Z,29.5
2024-05-09T14:42:00.251Z,29.5
2024-05-09T14:45:00.285Z,29.8
2024-05-09T14:48:00.533Z,29.1
2024-05-09T14:51:00.371Z,29.7
2024-05-09T14:54:00.297Z,29.7
2024-05-09T14:57:00.310Z,29.1
2024-05-09T15:00:00.245Z,29.7
2024-05-09T15:03:00.724Z,29.0
2024-05-09T15:06:00.344Z,29.0
2024-05-09T15:09:00.303Z,29.4
2024-05-09T15:12:00.648Z,29.3
2024-05-09T15:15:00.306Z,29.8
2024-05-09T15:18:00.504Z,29.8
2024-05-09T15:21:00.321Z,29.8
2024-05-09T15:24:00.284Z,29.7
2024-05-09T15:27:00.262Z,30.0
2024-05-09T15:30:00.330Z,30.0
2024-05-09T15:33:01.327Z,29.6
2024-05-09T15:36:00.275Z,30.1
2024-05-09T15:39:00.318Z,30.1
2024-05-09T15:42:01.298Z,30.1
2024-05-09T15:45:00.312Z,30.8
2024-05-09T15:48:01.051Z,30.7
2024-05-09T15:51:00.307Z,30.1
2024-05-09T15:54:00.294Z,30.1
2024-05-09T15:57:00.274Z,29.4
2024-05-09T16:00:00.321Z,29.9
2024-05-09T16:03:00.289Z,30.0
2024-05-09T16:06:00.346Z,30.0
2024-05-09T16:09:00.334Z,29.6
2024-05-09T16:12:00.310Z,29.6
2024-05-09T16:15:00.276Z,30.3
2024-05-09T16:18:00.420Z,30.3
2024-05-09T16:21:00.555Z,29.8
2024-05-09T16:24:00.268Z,30.1
2024-05-09T16:27:00.279Z,30.3
2024-05-09T16:30:00.258Z,30.3
2024-05-09T16:33:00.365Z,31.0
2024-05-09T16:36:00.262Z,31.2
2024-05-09T16:39:00.241Z,31.2
2024-05-09T16:42:00.401Z,31.2
2024-05-09T16:45:00.240Z,31.2
2024-05-09T16:48:00.643Z,31.2
2024-05-09T16:51:00.239Z,30.6
2024-05-09T16:54:00.264Z,30.6
2024-05-09T16:57:00.304Z,31.2
2024-05-09T17:00:00.204Z,31.8
2024-05-09T17:03:00.315Z,32.0
2024-05-09T17:06:00.312Z,32.0
2024-05-09T17:09:08.323Z,32.0
2024-05-09T17:12:00.253Z,32.1
2024-05-09T17:18:00.718Z,32.2
2024-05-09T17:21:00.253Z,32.5
2024-05-09T17:24:00.240Z,32.1
2024-05-09T17:27:00.280Z,32.6
2024-05-09T17:30:00.240Z,32.6
2024-05-09T17:33:00.412Z,31.6
2024-05-09T17:36:00.245Z,30.7
2024-05-09T17:39:00.274Z,30.2
2024-05-09T17:42:00.238Z,30.2
2024-05-09T17:45:00.383Z,29.9
2024-05-09T17:48:00.505Z,30.1
2024-05-09T17:51:00.259Z,30.7
2024-05-09T17:54:00.223Z,30.7
2024-05-09T17:57:00.239Z,31.7
2024-05-09T18:00:00.241Z,32.1
2024-05-09T18:03:00.377Z,32.0
2024-05-09T18:06:00.289Z,32.0
2024-05-09T18:09:00.181Z,32.2
2024-05-09T18:12:00.290Z,32.1
2024-05-09T18:15:00.630Z,32.6
2024-05-09T18:18:00.786Z,32.6
2024-05-09T18:21:00.240Z,33.4
2024-05-09T18:24:00.447Z,34.1
2024-05-09T18:27:00.243Z,34.7
2024-05-09T18:30:00.258Z,34.7
2024-05-09T18:33:00.369Z,34.9
2024-05-09T18:36:00.249Z,35.7
2024-05-09T18:39:00.179Z,36.2
2024-05-09T18:42:00.194Z,36.2
2024-05-09T18:45:00.304Z,36.4
2024-05-09T18:48:00.487Z,37.0
2024-05-09T18:51:00.252Z,37.1
2024-05-09T18:54:00.317Z,37.1
2024-05-09T18:57:00.307Z,37.6
2024-05-09T19:00:00.175Z,37.7
2024-05-09T19:03:00.389Z,38.0
2024-05-09T19:06:01.419Z,38.0
2024-05-09T19:09:00.287Z,38.3
2024-05-09T19:12:00.256Z,38.2
2024-05-09T19:15:00.258Z,38.6
2024-05-09T19:18:00.320Z,38.6
2024-05-09T19:21:00.231Z,39.1
2024-05-09T19:24:00.200Z,39.3
2024-05-09T19:27:00.232Z,39.6
2024-05-09T19:30:00.213Z,39.6
2024-05-09T19:33:00.343Z,40.1
2024-05-09T19:36:00.207Z,40.2
2024-05-09T19:39:00.167Z,40.3
2024-05-09T19:42:00.186Z,40.3
2024-05-09T19:45:00.226Z,40.7
2024-05-09T19:48:00.630Z,41.0
2024-05-09T19:51:00.237Z,41.1
2024-05-09T19:54:00.177Z,41.1
2024-05-09T19:57:00.195Z,41.3
2024-05-09T20:00:00.312Z,41.5
2024-05-09T20:03:00.265Z,41.7
2024-05-09T20:06:00.202Z,41.7
2024-05-09T20:09:00.256Z,42.0
2024-05-09T20:12:00.277Z,42.0
2024-05-09T20:15:00.228Z,42.2
2024-05-09T20:18:00.455Z,42.2
2024-05-09T20:21:00.626Z,42.2
2024-05-09T20:24:00.194Z,42.6
2024-05-09T20:27:00.136Z,42.6
2024-05-09T20:30:00.197Z,42.6
2024-05-09T20:33:01.539Z,42.6
2024-05-09T20:36:01.786Z,42.8
2024-05-09T20:39:00.160Z,43.0
2024-05-09T20:42:00.849Z,43.0
2024-05-09T20:45:00.173Z,43.2
2024-05-09T20:48:00.489Z,43.5
2024-05-09T20:51:00.155Z,43.6
2024-05-09T20:54:00.174Z,43.6
2024-05-09T20:57:00.182Z,43.9
2024-05-09T21:00:00.154Z,44.0
2024-05-09T21:03:00.201Z,44.0
2024-05-09T21:06:00.151Z,44.0
2024-05-09T21:09:00.196Z,44.1
2024-05-09T21:12:00.202Z,44.2
2024-05-09T21:15:00.155Z,44.1
2024-05-09T21:18:00.286Z,44.1
2024-05-09T21:21:00.178Z,44.4
2024-05-09T21:24:00.162Z,44.7
2024-05-09T21:27:00.115Z,45.0
2024-05-09T21:30:00.154Z,45.0
2024-05-09T21:33:00.197Z,45.1
2024-05-09T21:36:00.139Z,45.4
2024-05-09T21:39:00.133Z,45.8
2024-05-09T21:42:00.173Z,45.8
2024-05-09T21:45:00.159Z,45.9
2024-05-09T21:48:02.674Z,46.3
2024-05-09T21:51:00.136Z,46.4
2024-05-09T21:54:00.147Z,46.4
2024-05-09T21:57:00.176Z,46.4
2024-05-09T22:00:00.166Z,46.9
2024-05-09T22:03:00.254Z,47.0
2024-05-09T22:06:00.136Z,47.0
2024-05-09T22:09:00.142Z,47.2
2024-05-09T22:12:00.233Z,47.6
2024-05-09T22:15:00.178Z,48.0
2024-05-09T22:18:00.283Z,48.0
2024-05-09T22:21:00.182Z,47.9
2024-05-09T22:24:00.124Z,48.2
2024-05-09T22:27:00.128Z,48.2
2024-05-09T22:30:00.118Z,48.2
2024-05-09T22:33:00.257Z,48.4
2024-05-09T22:36:00.135Z,49.0
2024-05-09T22:39:00.141Z,49.1
2024-05-09T22:42:00.103Z,49.1
2024-05-09T22:45:00.270Z,49.4
2024-05-09T22:48:00.489Z,49.4
2024-05-09T22:51:00.120Z,49.5
2024-05-09T22:54:01.553Z,49.5
2024-05-09T22:57:00.167Z,49.7
2024-05-09T23:00:00.119Z,49.7
2024-05-09T23:03:00.326Z,49.8
2024-05-09T23:06:04.375Z,49.8
2024-05-09T23:09:00.144Z,50.0
2024-05-09T23:12:00.164Z,50.2
2024-05-09T23:15:00.130Z,50.3
2024-05-09T23:18:00.277Z,50.3
2024-05-09T23:21:00.211Z,50.6
2024-05-09T23:24:00.093Z,50.8
2024-05-09T23:27:00.146Z,51.0
2024-05-09T23:30:00.133Z,51.0
2024-05-09T23:33:00.261Z,51.4
2024-05-09T23:36:00.148Z,51.5
2024-05-09T23:39:00.103Z,51.5
2024-05-09T23:42:00.107Z,51.5
2024-05-09T23:45:00.155Z,51.7
2024-05-09T23:48:00.299Z,51.8
2024-05-09T23:51:00.191Z,51.9
2024-05-09T23:54:00.069Z,51.9
2024-05-09T23:57:00.152Z,51.8
